Washington, OH (43749)

4:30 AM EDT on October 24, 2014 (GMT -0400)
Heller Drive | Change Station
CLOSE
Current Station
Personal Weather Station
Location: Newcomerstown, OH
Elevation: 792 ft
Nearby Weather Stations

Elev 792 ft 40.27 °N, 81.61 °W | Updated 2 seconds ago

Mostly Cloudy
Mostly Cloudy
37.9 °F
Feels Like 38 °F
N
0.0
Wind Variable Wind from WNW
Gusts 1.0 mph

Today
High -- | Low -- °F
--% Chance of Precip.
Yesterday
High -- | Low -- °F
Precip. -- in
7:46 AM 6:33 PM
New Moon, 0% visible
Pressure 30.12 in
Visibility 0.5 miles
Clouds
Windchill 38 °F
Dew Point 37 °F
Humidity 97%
Rainfall 0.00 in
Snow Depth Not available.
UV Not available.
Pollen .90 out of 12
Air Quality Not available.
Flu Activity Sporadic
METAR KPHD 240753Z AUTO 00000KT 1/2SM FG VV002 03/02 A3011 RMK AO2 SLP199 T00280022

More Conditions Fewer Conditions

Pressure 30.12 in
Visibility 0.5 miles
Clouds
Windchill 38 °F
Dew Point 37 °F
Humidity 97%
Rainfall 0.00 in
Snow Depth Not available.
UV Not available.
Pollen .90 out of 12
Air Quality Not available.
Flu Activity Sporadic
METAR KPHD 240753Z AUTO 00000KT 1/2SM FG VV002 03/02 A3011 RMK AO2 SLP199 T00280022

More Conditions Fewer Conditions

10-Day Weather Forecast

Almanac

Astronomy

Oct. 24, 2014 Rise Set
Actual Time 7:46 AM EDT 6:33 PM EDT
Civil Twilight 7:18 AM EDT 7:01 PM EDT
Nautical Twilight 6:47 AM EDT 7:33 PM EDT
Astronomical Twilight 6:15 AM EDT 8:04 PM EDT
Moon 8:24 AM EDT 7:12 PM EDT
Length of Visible Light 11h 42m
Length of Day
10h 47m
Tomorrow will be 2m 27s shorter.
New Moon, 0% of the Moon is Illuminated
Today
New Moon
Oct 30
First Quarter
Nov 6
Full
Nov 14
Last Quarter
Nov 22
New

Today's Extremes

State Highs State Lows

Community

WunderPhotos

Upload Photos

1,764,511 photos uploaded!

WunderBlogs® & News

Nearby

Snow Depth

Station Depth Elevation
No new snow has been reported.

Earthquake Activity

City Distance Mag. Time & Date
No recent earthquake activity has been reported nearby.
Minimum magnitude displayed is 2.5.

Coastal Water Temperatures

Place Temperature
No Stations Reporting

Nearby Weather Stations